createdAt,value
2018-11-28T00:00:27.125Z,39.47
2018-11-28T00:02:55.739Z,45.00
2018-11-28T00:05:24.365Z,48.27
2018-11-28T00:07:52.967Z,48.23
2018-11-28T00:10:21.732Z,52.20
2018-11-28T00:12:50.450Z,46.33
2018-11-28T00:15:19.148Z,46.33
2018-11-28T00:17:47.753Z,44.87
2018-11-28T00:20:18.855Z,64.37
2018-11-28T00:22:47.624Z,43.33
2018-11-28T00:25:16.855Z,45.20
2018-11-28T00:27:45.493Z,48.10
2018-11-28T00:30:20.801Z,46.60
2018-11-28T00:32:49.425Z,47.07
2018-11-28T00:35:20.087Z,46.20
2018-11-28T00:37:48.789Z,41.77
2018-11-28T00:40:19.547Z,42.60
2018-11-28T00:42:48.187Z,43.90
2018-11-28T00:45:19.575Z,42.60
2018-11-28T00:47:48.216Z,43.53
2018-11-28T00:50:21.048Z,43.83
2018-11-28T00:52:49.646Z,46.23
2018-11-28T00:55:18.680Z,42.57
2018-11-28T00:57:47.315Z,52.13
2018-11-28T01:00:16.981Z,54.37
2018-11-28T01:02:45.800Z,45.50
2018-11-28T01:05:14.846Z,48.50
2018-11-28T01:07:44.232Z,42.63
2018-11-28T01:10:15.497Z,46.53
2018-11-28T01:12:44.142Z,48.97
2018-11-28T01:15:13.752Z,59.23
2018-11-28T01:17:42.342Z,47.73
2018-11-28T01:20:13.789Z,46.87
2018-11-28T01:22:42.433Z,54.03
2018-11-28T01:25:13.873Z,49.40
2018-11-28T01:27:42.514Z,52.57
2018-11-28T01:30:12.229Z,47.23
2018-11-28T01:32:40.831Z,59.20
2018-11-28T01:35:11.471Z,50.70
2018-11-28T01:37:40.548Z,50.80
2018-11-28T01:40:13.374Z,55.27
2018-11-28T01:42:42.025Z,51.40
2018-11-28T01:45:15.079Z,56.20
2018-11-28T01:47:43.813Z,51.77
2018-11-28T01:50:14.178Z,57.07
2018-11-28T01:52:42.760Z,52.67
2018-11-28T01:55:12.369Z,46.93
2018-11-28T01:57:40.974Z,55.53
2018-11-28T02:00:14.380Z,58.27
2018-11-28T02:02:42.949Z,58.63
2018-11-28T02:05:12.366Z,55.90
2018-11-28T02:07:40.948Z,53.57
2018-11-28T02:10:12.068Z,54.47
2018-11-28T02:12:40.721Z,50.17
2018-11-28T02:15:11.886Z,48.87
2018-11-28T02:17:40.559Z,52.93
2018-11-28T02:20:11.451Z,56.37
2018-11-28T02:22:40.086Z,53.03
2018-11-28T02:25:12.002Z,49.97
2018-11-28T02:27:40.580Z,58.87
2018-11-28T02:30:13.345Z,52.37
2018-11-28T02:32:41.902Z,52.77
2018-11-28T02:35:12.336Z,53.10
2018-11-28T02:37:40.925Z,52.57
2018-11-28T02:40:11.510Z,52.03
2018-11-28T02:42:40.216Z,56.70
2018-11-28T02:45:11.011Z,55.10
2018-11-28T02:47:39.582Z,52.57
2018-11-28T02:50:08.327Z,58.37
2018-11-28T02:52:36.900Z,53.40
2018-11-28T02:55:06.999Z,59.53
2018-11-28T02:57:35.586Z,48.70
2018-11-28T03:00:07.156Z,52.10
2018-11-28T03:02:35.736Z,42.57
2018-11-28T03:05:05.069Z,57.67
2018-11-28T03:07:33.664Z,47.37
2018-11-28T03:10:02.205Z,51.10
2018-11-28T03:12:30.715Z,56.90
2018-11-28T03:14:59.251Z,50.40
2018-11-28T03:17:27.779Z,51.60
2018-11-28T03:19:56.344Z,36.87
2018-11-28T03:22:24.889Z,57.47
2018-11-28T03:24:53.422Z,52.27
2018-11-28T03:27:21.990Z,50.53
2018-11-28T03:29:50.493Z,58.33
2018-11-28T03:32:19.035Z,55.20
2018-11-28T03:34:47.578Z,53.13
2018-11-28T03:37:17.183Z,49.60
2018-11-28T03:39:45.728Z,47.67
2018-11-28T03:42:14.285Z,56.30
2018-11-28T03:44:42.799Z,52.43
2018-11-28T03:47:11.408Z,52.53
2018-11-28T03:49:39.948Z,57.73
2018-11-28T03:52:08.493Z,55.87
2018-11-28T03:54:37.029Z,40.00
2018-11-28T03:57:05.696Z,54.10
2018-11-28T03:59:34.243Z,55.13
2018-11-28T04:02:02.813Z,49.80
2018-11-28T04:04:31.377Z,49.00
2018-11-28T04:07:00.006Z,49.20
2018-11-28T04:09:28.569Z,50.47
2018-11-28T04:11:57.168Z,49.67
2018-11-28T04:14:25.705Z,46.30
2018-11-28T04:16:54.262Z,41.77
2018-11-28T04:19:22.808Z,54.73
2018-11-28T04:21:51.356Z,46.57
2018-11-28T04:24:19.918Z,47.97
2018-11-28T04:26:48.461Z,52.23
2018-11-28T04:29:17.018Z,53.00
2018-11-28T04:31:45.612Z,51.43
2018-11-28T04:34:14.192Z,48.70
2018-11-28T04:36:42.743Z,39.97
2018-11-28T04:39:11.315Z,40.67
2018-11-28T04:41:39.903Z,49.20
2018-11-28T04:44:08.470Z,55.30
2018-11-28T04:46:37.072Z,62.80
2018-11-28T04:49:05.793Z,63.03
2018-11-28T04:51:34.352Z,60.67
2018-11-28T04:54:02.913Z,59.37
2018-11-28T04:56:31.465Z,56.07
2018-11-28T04:59:00.017Z,65.10
2018-11-28T05:01:28.565Z,49.03
2018-11-28T05:03:57.097Z,55.67
2018-11-28T05:07:30.183Z,48.40
2018-11-28T05:09:59.184Z,49.93
2018-11-28T05:12:27.862Z,59.50
2018-11-28T05:14:56.427Z,49.33
2018-11-28T05:17:24.957Z,60.50
2018-11-28T05:19:53.493Z,57.40
2018-11-28T05:22:22.031Z,60.00
2018-11-28T05:24:50.557Z,57.47
2018-11-28T05:27:19.057Z,52.50
2018-11-28T05:29:47.593Z,30.43
2018-11-28T05:32:16.105Z,53.97
2018-11-28T05:34:44.633Z,54.53
2018-11-28T05:37:13.158Z,58.20
2018-11-28T05:39:41.825Z,54.47
2018-11-28T05:42:10.346Z,46.17
2018-11-28T05:44:38.889Z,52.67
2018-11-28T05:47:07.472Z,56.47
2018-11-28T05:49:36.185Z,60.07
2018-11-28T05:52:04.730Z,54.40
2018-11-28T05:54:33.270Z,55.63
2018-11-28T05:57:01.804Z,55.93
2018-11-28T05:59:30.325Z,66.13
2018-11-28T06:01:58.844Z,56.80
2018-11-28T06:04:27.384Z,51.10
2018-11-28T06:06:55.901Z,47.60
2018-11-28T06:09:24.454Z,49.80
2018-11-28T06:11:53.010Z,48.03
2018-11-28T06:14:21.575Z,59.20
2018-11-28T06:16:50.159Z,54.87
2018-11-28T06:19:18.701Z,56.73
2018-11-28T06:21:47.257Z,66.47
2018-11-28T06:24:15.808Z,61.13
2018-11-28T06:26:44.321Z,64.57
2018-11-28T06:29:12.889Z,60.50
2018-11-28T06:31:41.463Z,58.97
2018-11-28T06:34:09.985Z,57.80
2018-11-28T06:36:38.564Z,55.00
2018-11-28T06:39:09.070Z,57.00
2018-11-28T06:41:37.771Z,56.57
2018-11-28T06:44:06.349Z,62.27
2018-11-28T06:46:34.941Z,65.03
2018-11-28T06:49:03.503Z,57.87
2018-11-28T06:51:32.033Z,58.07
2018-11-28T06:54:00.578Z,54.80
2018-11-28T06:56:29.188Z,58.80
2018-11-28T06:58:57.736Z,55.47
2018-11-28T07:01:26.316Z,57.03
2018-11-28T07:03:54.865Z,50.40
2018-11-28T07:06:23.428Z,56.97
2018-11-28T07:08:51.978Z,58.03
2018-11-28T07:11:20.589Z,61.60
2018-11-28T07:13:49.210Z,56.00
2018-11-28T07:16:17.790Z,50.17
2018-11-28T07:18:57.472Z,56.93
2018-11-28T07:21:26.068Z,60.27
2018-11-28T07:23:54.737Z,64.10
2018-11-28T07:26:23.320Z,54.50
2018-11-28T07:28:51.880Z,59.63
2018-11-28T07:31:20.504Z,56.90
2018-11-28T07:33:49.063Z,56.57
2018-11-28T07:36:17.632Z,56.00
2018-11-28T07:38:46.329Z,60.10
2018-11-28T07:41:14.904Z,50.50
2018-11-28T07:43:43.491Z,53.33
2018-11-28T07:46:12.032Z,53.93
2018-11-28T07:48:40.688Z,59.20
2018-11-28T07:51:09.373Z,59.30
2018-11-28T07:53:37.954Z,49.93
2018-11-28T07:56:06.658Z,51.53
2018-11-28T07:58:35.242Z,42.10
2018-11-28T08:01:03.897Z,43.07
2018-11-28T08:03:32.524Z,53.57
2018-11-28T08:06:01.077Z,54.10
2018-11-28T08:08:33.838Z,43.50
2018-11-28T08:11:02.611Z,54.20
2018-11-28T08:13:31.160Z,52.83
2018-11-28T08:15:59.770Z,51.33
2018-11-28T08:18:28.292Z,49.37
2018-11-28T08:20:56.856Z,49.77
2018-11-28T08:23:25.409Z,44.40
2018-11-28T08:25:54.160Z,45.77
2018-11-28T08:28:22.717Z,50.03
2018-11-28T08:30:51.276Z,51.50
2018-11-28T08:33:19.818Z,45.33
2018-11-28T08:35:48.400Z,43.30
2018-11-28T08:38:16.916Z,49.80
2018-11-28T08:40:45.468Z,42.23
2018-11-28T08:43:14.026Z,38.00
2018-11-28T08:45:42.667Z,43.07
2018-11-28T08:48:15.584Z,51.47
2018-11-28T08:50:44.171Z,34.40
2018-11-28T08:53:12.843Z,45.20
2018-11-28T08:55:41.445Z,45.77
2018-11-28T08:58:09.994Z,49.43
2018-11-28T09:00:38.577Z,52.07
2018-11-28T09:03:07.594Z,45.20
2018-11-28T09:05:36.146Z,44.73
2018-11-28T09:08:04.755Z,39.90
2018-11-28T09:10:33.340Z,43.37
2018-11-28T09:13:04.339Z,35.07
2018-11-28T09:15:31.397Z,47.33
2018-11-28T09:17:59.836Z,35.97
2018-11-28T09:20:28.333Z,40.20
2018-11-28T09:22:56.955Z,26.60
2018-11-28T09:25:26.592Z,45.87
2018-11-28T09:27:58.272Z,39.87
2018-11-28T09:30:26.917Z,25.87
2018-11-28T09:32:55.493Z,32.57
2018-11-28T09:35:24.045Z,33.00
2018-11-28T09:37:52.594Z,41.80
2018-11-28T09:40:22.172Z,40.37
2018-11-28T09:42:51.707Z,50.53
2018-11-28T09:45:20.896Z,46.57
2018-11-28T09:47:49.665Z,51.13
2018-11-28T09:50:19.359Z,43.90
2018-11-28T09:52:48.034Z,50.97
2018-11-28T09:55:24.670Z,41.63
2018-11-28T09:57:53.361Z,43.87
2018-11-28T10:00:28.754Z,37.83
2018-11-28T10:02:58.388Z,43.43
2018-11-28T10:05:34.175Z,41.37
2018-11-28T10:08:03.063Z,44.60
2018-11-28T10:10:31.640Z,48.03
2018-11-28T10:13:00.284Z,45.93
2018-11-28T10:15:35.227Z,45.20
2018-11-28T10:32:11.938Z,45.80
2018-11-28T10:34:40.560Z,43.73
2018-11-28T10:37:08.781Z,45.53
2018-11-28T10:39:37.239Z,47.33
2018-11-28T10:42:06.006Z,43.97
2018-11-28T10:44:34.272Z,42.47
2018-11-28T10:47:02.517Z,32.13
2018-11-28T10:49:30.754Z,47.27
2018-11-28T10:52:00.265Z,42.63
2018-11-28T10:54:27.282Z,37.77
2018-11-28T10:56:55.522Z,41.60
2018-11-28T10:59:23.773Z,26.00
2018-11-28T11:01:52.031Z,26.10
2018-11-28T11:04:24.551Z,43.10
2018-11-28T11:06:58.268Z,27.40
2018-11-28T11:09:32.037Z,31.27
2018-11-28T11:12:07.654Z,39.30
2018-11-28T11:14:41.446Z,49.20
2018-11-28T11:17:09.648Z,48.67
2018-11-28T11:19:38.127Z,38.17
2018-11-28T11:22:06.567Z,42.40
2018-11-28T11:24:34.798Z,46.33
2018-11-28T11:27:03.022Z,38.83
2018-11-28T11:29:31.264Z,46.23
2018-11-28T11:31:59.555Z,34.33
2018-11-28T11:34:27.835Z,46.60
2018-11-28T11:36:56.049Z,40.80
2018-11-28T11:39:24.311Z,42.70
2018-11-28T11:41:52.563Z,40.47
2018-11-28T11:44:20.930Z,41.97
2018-11-28T11:46:49.184Z,36.43
2018-11-28T11:49:17.415Z,29.67
2018-11-28T11:51:45.690Z,42.70
2018-11-28T11:54:13.926Z,47.60
2018-11-28T11:56:42.253Z,43.07
2018-11-28T11:59:10.478Z,43.70
2018-11-28T12:01:38.890Z,41.57
2018-11-28T12:04:07.110Z,46.03
2018-11-28T12:06:35.391Z,42.93
2018-11-28T12:09:03.688Z,36.30
2018-11-28T12:11:31.918Z,37.80
2018-11-28T12:14:00.160Z,44.10
2018-11-28T12:16:28.382Z,28.63
2018-11-28T12:18:56.723Z,44.10
2018-11-28T12:21:24.957Z,39.40
2018-11-28T12:23:53.226Z,34.70
2018-11-28T12:26:21.458Z,31.03
2018-11-28T12:28:49.682Z,38.60
2018-11-28T12:31:17.913Z,19.37
2018-11-28T12:33:46.156Z,35.80
2018-11-28T12:36:14.388Z,45.43
2018-11-28T12:38:42.594Z,39.20
2018-11-28T12:41:10.863Z,33.03
2018-11-28T12:43:39.287Z,39.70
2018-11-28T12:46:07.530Z,28.13
2018-11-28T12:48:35.784Z,39.83
2018-11-28T12:51:03.994Z,28.13
2018-11-28T12:53:32.248Z,37.80
2018-11-28T12:56:00.445Z,38.47
2018-11-28T12:58:28.666Z,27.00
2018-11-28T13:00:56.918Z,31.10
2018-11-28T13:03:25.178Z,37.90
2018-11-28T13:05:53.408Z,31.87
2018-11-28T13:08:21.670Z,32.73
2018-11-28T13:10:49.937Z,38.27
2018-11-28T13:13:18.232Z,37.03
2018-11-28T13:15:46.444Z,16.30
2018-11-28T13:18:14.711Z,36.23
2018-11-28T13:20:43.093Z,41.60
2018-11-28T13:23:12.764Z,39.00
2018-11-28T13:25:41.022Z,42.20
2018-11-28T13:28:09.299Z,40.60
2018-11-28T13:30:38.419Z,34.87
2018-11-28T13:33:07.620Z,38.93
2018-11-28T13:35:35.999Z,38.90
2018-11-28T13:38:08.486Z,39.07
2018-11-28T13:40:36.730Z,38.17
2018-11-28T13:43:05.081Z,33.07
2018-11-28T13:45:34.829Z,40.70
2018-11-28T13:48:03.093Z,37.70
2018-11-28T13:50:31.310Z,37.27
2018-11-28T13:53:01.185Z,34.60
2018-11-28T13:56:57.273Z,34.00
2018-11-28T13:58:25.021Z,20.40
2018-11-28T14:00:53.239Z,31.67
2018-11-28T14:03:21.518Z,30.37
2018-11-28T14:05:49.731Z,35.93
2018-11-28T14:08:17.967Z,41.00
2018-11-28T14:10:46.187Z,33.00
2018-11-28T14:13:15.361Z,31.83
2018-11-28T14:15:42.694Z,35.47
2018-11-28T14:18:15.442Z,32.60
2018-11-28T14:20:43.731Z,32.50
2018-11-28T14:23:11.984Z,39.67
2018-11-28T14:25:40.465Z,41.57
2018-11-28T14:28:09.130Z,34.40
2018-11-28T14:30:38.051Z,35.40
2018-11-28T14:33:06.295Z,30.10
2018-11-28T14:35:34.537Z,41.13
2018-11-28T14:38:02.766Z,31.70
2018-11-28T14:40:31.114Z,31.90
2018-11-28T14:42:59.703Z,36.93
2018-11-28T14:45:28.703Z,31.73
2018-11-28T14:47:56.926Z,38.33
2018-11-28T14:50:27.590Z,25.10
2018-11-28T14:52:56.983Z,33.80
2018-11-28T14:55:34.196Z,37.03
2018-11-28T14:58:02.450Z,39.80
2018-11-28T15:00:31.234Z,38.03
2018-11-28T15:03:02.808Z,30.43
2018-11-28T15:06:08.589Z,33.50
2018-11-28T15:08:37.162Z,32.83
2018-11-28T15:11:10.530Z,31.47
2018-11-28T15:13:39.592Z,35.30
2018-11-28T15:16:07.884Z,31.80
2018-11-28T15:18:36.187Z,33.80
2018-11-28T15:21:04.772Z,38.43
2018-11-28T15:23:33.006Z,32.87
2018-11-28T15:26:01.331Z,39.50
2018-11-28T15:28:29.558Z,31.90
2018-11-28T15:30:57.801Z,33.87
2018-11-28T15:33:26.019Z,40.90
2018-11-28T15:35:54.255Z,32.60
2018-11-28T15:38:22.478Z,31.67
2018-11-28T15:40:50.783Z,35.13
2018-11-28T15:43:19.070Z,41.50
2018-11-28T15:45:47.294Z,34.10
2018-11-28T15:48:15.536Z,49.40
2018-11-28T15:50:43.850Z,40.53
2018-11-28T15:53:12.022Z,40.67
2018-11-28T15:55:40.231Z,41.67
2018-11-28T15:58:08.441Z,41.77
2018-11-28T16:00:36.880Z,46.10
2018-11-28T16:03:05.462Z,43.17
2018-11-28T16:05:33.698Z,30.83
2018-11-28T16:08:01.966Z,43.30
2018-11-28T16:10:33.761Z,38.53
2018-11-28T16:13:01.998Z,38.77
2018-11-28T16:15:32.262Z,39.97
2018-11-28T16:18:00.490Z,16.17
2018-11-28T16:20:28.690Z,28.47
2018-11-28T16:23:04.192Z,47.87
2018-11-28T16:25:25.275Z,48.20
2018-11-28T16:27:53.447Z,41.37
2018-11-28T16:30:21.663Z,40.27
2018-11-28T16:32:49.873Z,44.27
2018-11-28T16:35:18.252Z,36.00
2018-11-28T16:37:46.467Z,31.73
2018-11-28T16:40:15.446Z,43.60
2018-11-28T16:42:43.727Z,31.20
2018-11-28T16:45:15.038Z,30.87
2018-11-28T16:47:43.369Z,29.00
2018-11-28T16:50:12.327Z,42.93
2018-11-28T16:52:40.775Z,41.73
2018-11-28T16:55:11.134Z,39.13
2018-11-28T16:57:40.060Z,40.43
2018-11-28T17:00:12.002Z,44.77
2018-11-28T17:02:40.291Z,43.53
2018-11-28T17:05:11.395Z,43.40
2018-11-28T17:07:40.314Z,44.50
2018-11-28T17:10:15.551Z,41.50
2018-11-28T17:12:44.428Z,29.27
2018-11-28T17:15:15.711Z,53.27
2018-11-28T17:17:43.973Z,59.23
2018-11-28T17:20:17.077Z,54.77
2018-11-28T17:22:45.579Z,47.20
2018-11-28T17:25:18.925Z,45.43
2018-11-28T17:27:47.142Z,46.50
2018-11-28T17:30:18.735Z,46.63
2018-11-28T17:32:44.829Z,49.20
2018-11-28T17:35:13.745Z,53.83
2018-11-28T17:37:41.995Z,46.87
2018-11-28T17:40:15.458Z,56.67
2018-11-28T17:42:44.739Z,43.40
2018-11-28T17:45:14.161Z,59.67
2018-11-28T17:47:42.402Z,52.87
2018-11-28T17:50:15.832Z,53.33
2018-11-28T17:52:45.845Z,50.07
2018-11-28T17:55:15.664Z,49.43
2018-11-28T17:57:43.886Z,51.87
2018-11-28T18:00:13.249Z,45.90
2018-11-28T18:02:41.678Z,36.17
2018-11-28T18:05:10.697Z,38.40
2018-11-28T18:07:39.375Z,51.83
2018-11-28T18:10:10.550Z,51.63
2018-11-28T18:12:43.253Z,35.90
2018-11-28T18:15:11.475Z,56.27
2018-11-28T18:17:40.011Z,34.13
2018-11-28T18:20:08.326Z,33.67
2018-11-28T18:22:36.586Z,64.10
2018-11-28T18:25:05.722Z,51.73
2018-11-28T18:27:33.951Z,49.67
2018-11-28T18:30:02.162Z,53.67
2018-11-28T18:32:30.401Z,54.23
2018-11-28T18:34:58.653Z,47.57
2018-11-28T18:37:26.895Z,42.43
2018-11-28T18:39:55.102Z,54.63
2018-11-28T18:42:23.320Z,48.90
2018-11-28T18:44:51.538Z,59.23
2018-11-28T18:47:19.751Z,61.47
2018-11-28T18:49:47.959Z,55.00
2018-11-28T18:52:16.194Z,49.97
2018-11-28T18:54:44.406Z,52.80
2018-11-28T18:57:12.626Z,40.90
2018-11-28T18:59:40.854Z,55.50
2018-11-28T19:02:09.134Z,60.60
2018-11-28T19:04:37.538Z,48.23
2018-11-28T19:07:06.023Z,53.97
2018-11-28T19:09:39.755Z,54.10
2018-11-28T19:12:07.994Z,52.70
2018-11-28T19:14:36.227Z,64.20
2018-11-28T19:17:04.532Z,52.17
2018-11-28T19:19:32.738Z,60.27
2018-11-28T19:22:00.954Z,61.23
2018-11-28T19:24:29.210Z,53.07
2018-11-28T19:26:57.427Z,47.57
2018-11-28T19:29:25.643Z,49.70
2018-11-28T19:31:53.873Z,59.57
2018-11-28T19:34:22.154Z,64.57
2018-11-28T19:36:50.395Z,56.50
2018-11-28T19:39:18.675Z,61.10
2018-11-28T19:41:46.918Z,56.33
2018-11-28T19:44:15.255Z,67.37
2018-11-28T19:46:43.505Z,45.17
2018-11-28T19:49:11.745Z,59.53
2018-11-28T19:51:39.986Z,61.87
2018-11-28T19:54:08.194Z,54.57
2018-11-28T19:56:36.454Z,64.13
2018-11-28T19:59:04.763Z,55.13
2018-11-28T20:01:32.982Z,55.57
2018-11-28T20:04:01.211Z,62.00
2018-11-28T20:06:29.453Z,59.40
2018-11-28T20:11:25.916Z,65.10
2018-11-28T20:13:54.162Z,67.13
2018-11-28T20:16:22.435Z,59.77
2018-11-28T20:18:50.685Z,56.23
2018-11-28T20:21:18.902Z,58.97
2018-11-28T20:23:47.115Z,57.73
2018-11-28T20:26:15.314Z,54.47
2018-11-28T20:28:43.554Z,55.53
2018-11-28T20:31:11.754Z,61.20
2018-11-28T20:33:40.822Z,63.80
2018-11-28T20:36:09.047Z,67.67
2018-11-28T20:38:37.287Z,57.37
2018-11-28T20:41:06.039Z,62.67
2018-11-28T20:43:34.266Z,33.00
2018-11-28T20:46:02.492Z,62.90
2018-11-28T20:48:30.711Z,63.53
2018-11-28T20:50:58.914Z,57.73
2018-11-28T20:53:27.188Z,54.63
2018-11-28T20:55:55.389Z,39.07
2018-11-28T20:58:23.610Z,58.27
2018-11-28T21:00:51.831Z,27.93
2018-11-28T21:03:20.042Z,60.73
2018-11-28T21:05:48.274Z,51.73
2018-11-28T21:08:16.547Z,65.03
2018-11-28T21:10:44.754Z,58.63
2018-11-28T21:13:13.626Z,56.73
2018-11-28T21:15:43.025Z,58.63
2018-11-28T21:18:11.266Z,44.97
2018-11-28T21:20:40.728Z,60.70
2018-11-28T21:23:10.540Z,61.00
2018-11-28T21:25:38.853Z,66.90
2018-11-28T21:28:07.056Z,38.50
2018-11-28T21:30:35.306Z,58.97
2018-11-28T21:33:03.547Z,57.13
2018-11-28T21:35:35.419Z,51.53
2018-11-28T21:38:03.685Z,65.20
2018-11-28T21:40:31.905Z,60.10
2018-11-28T21:43:00.134Z,55.33
2018-11-28T21:45:28.354Z,61.37
2018-11-28T21:47:56.649Z,65.97
2018-11-28T21:50:24.906Z,57.53
2018-11-28T21:52:53.146Z,41.43
2018-11-28T21:55:22.415Z,64.47
2018-11-28T21:57:50.671Z,58.00
2018-11-28T22:00:20.833Z,44.27
2018-11-28T22:02:49.057Z,58.43
2018-11-28T22:05:17.524Z,65.37
2018-11-28T22:07:45.733Z,52.93
2018-11-28T22:10:15.778Z,70.10
2018-11-28T22:12:44.034Z,59.77
2018-11-28T22:15:14.164Z,60.23
2018-11-28T22:17:43.570Z,64.20
2018-11-28T22:20:12.559Z,59.80
2018-11-28T22:22:40.781Z,63.87
2018-11-28T22:25:12.209Z,67.00
2018-11-28T22:27:40.435Z,68.60
2018-11-28T22:30:10.686Z,45.97
2018-11-28T22:32:39.479Z,54.00
2018-11-28T22:35:07.978Z,62.83
2018-11-28T22:37:36.231Z,67.10
2018-11-28T22:40:07.679Z,72.13
2018-11-28T22:42:35.971Z,61.93
2018-11-28T22:45:04.762Z,73.17
2018-11-28T22:47:32.990Z,68.27
2018-11-28T22:50:01.246Z,69.10
2018-11-28T22:52:29.463Z,77.90
2018-11-28T22:54:58.744Z,66.63
2018-11-28T22:57:27.061Z,69.27
2018-11-28T22:59:55.255Z,57.20
2018-11-28T23:03:06.030Z,70.47
2018-11-28T23:05:38.443Z,61.47
2018-11-28T23:08:07.995Z,61.63
2018-11-28T23:10:36.784Z,64.93
2018-11-28T23:13:05.622Z,53.80
2018-11-28T23:15:33.857Z,64.97
2018-11-28T23:18:02.112Z,55.93
2018-11-28T23:20:30.334Z,49.73
2018-11-28T23:22:58.562Z,30.57
2018-11-28T23:25:26.769Z,67.50
2018-11-28T23:27:54.971Z,27.57
2018-11-28T23:30:23.255Z,59.77
2018-11-28T23:32:52.647Z,67.10
2018-11-28T23:35:20.943Z,62.23
2018-11-28T23:37:49.675Z,31.00
2018-11-28T23:40:18.902Z,49.10
2018-11-28T23:42:47.216Z,64.63
2018-11-28T23:45:15.742Z,72.17
2018-11-28T23:47:43.973Z,58.63
2018-11-28T23:50:16.187Z,67.37
2018-11-28T23:52:44.530Z,39.10
2018-11-28T23:55:19.726Z,51.50
2018-11-28T23:57:47.996Z,70.57
